sensor_id;sensor_type;location;lat;lon;timestamp;P1;durP1;ratioP1;P2;durP2;ratioP2
15114;SDS011;7658;51.456;7.622;2024-01-25T00:00:18;45.40;;;10.40;;
15114;SDS011;7658;51.456;7.622;2024-01-25T00:02:49;41.77;;;11.33;;
15114;SDS011;7658;51.456;7.622;2024-01-25T00:05:26;32.23;;;10.67;;
15114;SDS011;7658;51.456;7.622;2024-01-25T00:07:56;33.37;;;9.57;;
15114;SDS011;7658;51.456;7.622;2024-01-25T00:11:09;40.13;;;11.27;;
15114;SDS011;7658;51.456;7.622;2024-01-25T00:13:38;40.77;;;12.10;;
15114;SDS011;7658;51.456;7.622;2024-01-25T00:16:06;35.53;;;10.53;;
15114;SDS011;7658;51.456;7.622;2024-01-25T00:18:58;38.67;;;10.77;;
15114;SDS011;7658;51.456;7.622;2024-01-25T00:21:57;35.17;;;10.50;;
15114;SDS011;7658;51.456;7.622;2024-01-25T00:25:03;34.63;;;10.60;;
15114;SDS011;7658;51.456;7.622;2024-01-25T00:27:54;41.73;;;10.87;;
15114;SDS011;7658;51.456;7.622;2024-01-25T00:30:30;42.80;;;11.00;;
15114;SDS011;7658;51.456;7.622;2024-01-25T00:33:06;31.20;;;10.27;;
15114;SDS011;7658;51.456;7.622;2024-01-25T00:36:02;31.80;;;9.97;;
15114;SDS011;7658;51.456;7.622;2024-01-25T00:38:50;32.67;;;11.37;;
15114;SDS011;7658;51.456;7.622;2024-01-25T00:41:41;36.07;;;10.47;;
15114;SDS011;7658;51.456;7.622;2024-01-25T00:44:36;42.73;;;11.53;;
15114;SDS011;7658;51.456;7.622;2024-01-25T00:47:10;42.47;;;10.60;;
15114;SDS011;7658;51.456;7.622;2024-01-25T00:50:08;33.33;;;11.37;;
15114;SDS011;7658;51.456;7.622;2024-01-25T00:52:38;37.30;;;10.80;;
15114;SDS011;7658;51.456;7.622;2024-01-25T01:01:38;40.57;;;11.17;;
15114;SDS011;7658;51.456;7.622;2024-01-25T01:04:31;36.50;;;10.47;;
15114;SDS011;7658;51.456;7.622;2024-01-25T01:07:58;44.97;;;11.23;;
15114;SDS011;7658;51.456;7.622;2024-01-25T01:10:38;44.80;;;11.37;;
15114;SDS011;7658;51.456;7.622;2024-01-25T01:16:15;27.87;;;9.90;;
15114;SDS011;7658;51.456;7.622;2024-01-25T01:19:09;28.03;;;10.20;;
15114;SDS011;7658;51.456;7.622;2024-01-25T01:22:15;42.93;;;11.33;;
15114;SDS011;7658;51.456;7.622;2024-01-25T01:25:14;35.27;;;10.97;;
15114;SDS011;7658;51.456;7.622;2024-01-25T01:28:04;29.77;;;10.10;;
15114;SDS011;7658;51.456;7.622;2024-01-25T01:30:43;37.60;;;10.27;;
15114;SDS011;7658;51.456;7.622;2024-01-25T01:33:17;36.87;;;11.73;;
15114;SDS011;7658;51.456;7.622;2024-01-25T01:36:07;26.10;;;9.93;;
15114;SDS011;7658;51.456;7.622;2024-01-25T01:38:46;30.83;;;11.37;;
15114;SDS011;7658;51.456;7.622;2024-01-25T01:47:43;36.47;;;10.50;;
15114;SDS011;7658;51.456;7.622;2024-01-25T01:50:14;39.60;;;10.60;;
15114;SDS011;7658;51.456;7.622;2024-01-25T01:53:00;31.73;;;10.67;;
15114;SDS011;7658;51.456;7.622;2024-01-25T01:55:28;29.53;;;9.83;;
15114;SDS011;7658;51.456;7.622;2024-01-25T01:58:10;36.93;;;10.33;;
15114;SDS011;7658;51.456;7.622;2024-01-25T02:00:51;35.13;;;10.00;;
15114;SDS011;7658;51.456;7.622;2024-01-25T02:03:26;42.27;;;11.17;;
15114;SDS011;7658;51.456;7.622;2024-01-25T02:06:43;39.23;;;11.23;;
15114;SDS011;7658;51.456;7.622;2024-01-25T02:18:42;43.17;;;10.33;;
15114;SDS011;7658;51.456;7.622;2024-01-25T02:21:30;33.33;;;10.57;;
15114;SDS011;7658;51.456;7.622;2024-01-25T02:24:08;37.33;;;10.73;;
15114;SDS011;7658;51.456;7.622;2024-01-25T02:27:08;31.87;;;9.93;;
15114;SDS011;7658;51.456;7.622;2024-01-25T02:30:12;41.97;;;9.40;;
15114;SDS011;7658;51.456;7.622;2024-01-25T02:33:07;36.43;;;8.90;;
15114;SDS011;7658;51.456;7.622;2024-01-25T02:35:50;33.97;;;9.77;;
15114;SDS011;7658;51.456;7.622;2024-01-25T02:44:59;31.37;;;9.97;;
15114;SDS011;7658;51.456;7.622;2024-01-25T02:51:26;28.90;;;8.63;;
15114;SDS011;7658;51.456;7.622;2024-01-25T02:54:22;38.37;;;10.07;;
15114;SDS011;7658;51.456;7.622;2024-01-25T02:57:12;26.60;;;8.77;;
15114;SDS011;7658;51.456;7.622;2024-01-25T03:00:01;40.97;;;11.27;;
15114;SDS011;7658;51.456;7.622;2024-01-25T03:02:34;37.97;;;10.50;;
15114;SDS011;7658;51.456;7.622;2024-01-25T03:05:12;37.43;;;10.47;;
15114;SDS011;7658;51.456;7.622;2024-01-25T03:08:00;27.13;;;8.93;;
15114;SDS011;7658;51.456;7.622;2024-01-25T03:10:49;35.93;;;10.00;;
15114;SDS011;7658;51.456;7.622;2024-01-25T03:13:38;36.90;;;10.87;;
15114;SDS011;7658;51.456;7.622;2024-01-25T03:16:35;30.77;;;8.00;;
15114;SDS011;7658;51.456;7.622;2024-01-25T03:21:54;38.13;;;9.70;;
15114;SDS011;7658;51.456;7.622;2024-01-25T03:24:49;36.43;;;10.13;;
15114;SDS011;7658;51.456;7.622;2024-01-25T03:30:22;40.27;;;9.73;;
15114;SDS011;7658;51.456;7.622;2024-01-25T03:33:00;31.10;;;10.07;;
15114;SDS011;7658;51.456;7.622;2024-01-25T03:36:03;38.83;;;10.80;;
15114;SDS011;7658;51.456;7.622;2024-01-25T03:38:47;33.67;;;10.83;;
15114;SDS011;7658;51.456;7.622;2024-01-25T03:41:25;28.10;;;9.70;;
15114;SDS011;7658;51.456;7.622;2024-01-25T03:44:25;36.93;;;9.67;;
15114;SDS011;7658;51.456;7.622;2024-01-25T03:47:04;32.03;;;9.23;;
15114;SDS011;7658;51.456;7.622;2024-01-25T03:53:16;31.13;;;9.23;;
15114;SDS011;7658;51.456;7.622;2024-01-25T03:58:48;33.10;;;9.83;;
15114;SDS011;7658;51.456;7.622;2024-01-25T04:01:48;30.23;;;9.20;;
15114;SDS011;7658;51.456;7.622;2024-01-25T04:04:37;32.23;;;9.40;;
15114;SDS011;7658;51.456;7.622;2024-01-25T04:07:03;27.37;;;9.00;;
15114;SDS011;7658;51.456;7.622;2024-01-25T04:09:29;41.67;;;9.60;;
15114;SDS011;7658;51.456;7.622;2024-01-25T04:11:55;33.53;;;10.03;;
15114;SDS011;7658;51.456;7.622;2024-01-25T04:14:21;34.50;;;9.90;;
15114;SDS011;7658;51.456;7.622;2024-01-25T04:16:47;38.00;;;9.30;;
15114;SDS011;7658;51.456;7.622;2024-01-25T04:19:14;28.00;;;9.37;;
15114;SDS011;7658;51.456;7.622;2024-01-25T04:21:39;35.80;;;9.60;;
15114;SDS011;7658;51.456;7.622;2024-01-25T04:24:05;32.03;;;9.97;;
15114;SDS011;7658;51.456;7.622;2024-01-25T04:26:31;37.97;;;10.83;;
15114;SDS011;7658;51.456;7.622;2024-01-25T04:28:57;36.53;;;9.77;;
15114;SDS011;7658;51.456;7.622;2024-01-25T04:31:23;38.13;;;9.33;;
15114;SDS011;7658;51.456;7.622;2024-01-25T04:33:48;38.33;;;10.07;;
15114;SDS011;7658;51.456;7.622;2024-01-25T04:36:14;37.77;;;9.70;;
15114;SDS011;7658;51.456;7.622;2024-01-25T04:38:40;30.03;;;10.63;;
15114;SDS011;7658;51.456;7.622;2024-01-25T04:41:06;36.83;;;8.93;;
15114;SDS011;7658;51.456;7.622;2024-01-25T04:43:35;30.63;;;9.37;;
15114;SDS011;7658;51.456;7.622;2024-01-25T04:46:01;33.17;;;9.63;;
15114;SDS011;7658;51.456;7.622;2024-01-25T04:48:28;22.37;;;9.27;;
15114;SDS011;7658;51.456;7.622;2024-01-25T04:50:55;40.80;;;10.50;;
15114;SDS011;7658;51.456;7.622;2024-01-25T04:53:23;34.57;;;10.47;;
15114;SDS011;7658;51.456;7.622;2024-01-25T04:55:49;39.50;;;10.70;;
15114;SDS011;7658;51.456;7.622;2024-01-25T04:58:14;35.17;;;9.73;;
15114;SDS011;7658;51.456;7.622;2024-01-25T05:00:40;24.43;;;10.37;;
15114;SDS011;7658;51.456;7.622;2024-01-25T05:03:06;34.97;;;10.33;;
15114;SDS011;7658;51.456;7.622;2024-01-25T05:05:32;38.00;;;10.73;;
15114;SDS011;7658;51.456;7.622;2024-01-25T05:07:57;43.07;;;10.67;;
15114;SDS011;7658;51.456;7.622;2024-01-25T05:10:23;38.47;;;10.77;;
15114;SDS011;7658;51.456;7.622;2024-01-25T05:12:50;37.87;;;10.13;;
15114;SDS011;7658;51.456;7.622;2024-01-25T05:15:16;34.93;;;10.10;;
15114;SDS011;7658;51.456;7.622;2024-01-25T05:17:42;35.30;;;10.00;;
15114;SDS011;7658;51.456;7.622;2024-01-25T05:20:07;34.57;;;9.73;;
15114;SDS011;7658;51.456;7.622;2024-01-25T05:22:34;35.60;;;10.10;;
15114;SDS011;7658;51.456;7.622;2024-01-25T05:25:05;33.33;;;10.40;;
15114;SDS011;7658;51.456;7.622;2024-01-25T05:27:33;33.80;;;10.00;;
15114;SDS011;7658;51.456;7.622;2024-01-25T05:29:59;27.17;;;10.03;;
15114;SDS011;7658;51.456;7.622;2024-01-25T05:32:25;37.33;;;10.73;;
15114;SDS011;7658;51.456;7.622;2024-01-25T05:34:51;32.70;;;10.53;;
15114;SDS011;7658;51.456;7.622;2024-01-25T05:37:16;39.10;;;9.37;;
15114;SDS011;7658;51.456;7.622;2024-01-25T05:39:42;28.40;;;9.13;;
15114;SDS011;7658;51.456;7.622;2024-01-25T05:42:08;32.77;;;9.30;;
15114;SDS011;7658;51.456;7.622;2024-01-25T05:44:34;36.13;;;9.77;;
15114;SDS011;7658;51.456;7.622;2024-01-25T05:46:59;36.90;;;10.53;;
15114;SDS011;7658;51.456;7.622;2024-01-25T05:49:25;33.13;;;10.37;;
15114;SDS011;7658;51.456;7.622;2024-01-25T05:51:51;38.70;;;11.43;;
15114;SDS011;7658;51.456;7.622;2024-01-25T05:54:17;38.70;;;10.20;;
15114;SDS011;7658;51.456;7.622;2024-01-25T05:56:43;40.97;;;10.67;;
15114;SDS011;7658;51.456;7.622;2024-01-25T05:59:08;39.77;;;10.53;;
15114;SDS011;7658;51.456;7.622;2024-01-25T06:01:34;46.40;;;11.63;;
15114;SDS011;7658;51.456;7.622;2024-01-25T06:04:00;33.00;;;11.37;;
15114;SDS011;7658;51.456;7.622;2024-01-25T06:06:26;34.77;;;11.10;;
15114;SDS011;7658;51.456;7.622;2024-01-25T06:08:51;37.13;;;11.27;;
15114;SDS011;7658;51.456;7.622;2024-01-25T06:11:17;39.63;;;10.53;;
15114;SDS011;7658;51.456;7.622;2024-01-25T06:13:43;34.73;;;10.80;;
15114;SDS011;7658;51.456;7.622;2024-01-25T06:16:09;33.27;;;10.77;;
15114;SDS011;7658;51.456;7.622;2024-01-25T06:18:35;36.27;;;11.53;;
15114;SDS011;7658;51.456;7.622;2024-01-25T06:21:01;40.67;;;10.60;;
15114;SDS011;7658;51.456;7.622;2024-01-25T06:23:27;37.57;;;10.23;;
15114;SDS011;7658;51.456;7.622;2024-01-25T06:25:53;36.47;;;10.77;;
15114;SDS011;7658;51.456;7.622;2024-01-25T06:28:18;42.83;;;11.37;;
15114;SDS011;7658;51.456;7.622;2024-01-25T06:30:44;34.73;;;10.57;;
15114;SDS011;7658;51.456;7.622;2024-01-25T06:33:10;37.43;;;10.97;;
15114;SDS011;7658;51.456;7.622;2024-01-25T06:35:36;32.57;;;10.10;;
15114;SDS011;7658;51.456;7.622;2024-01-25T06:38:01;36.77;;;11.27;;
15114;SDS011;7658;51.456;7.622;2024-01-25T06:40:27;48.47;;;11.67;;
15114;SDS011;7658;51.456;7.622;2024-01-25T06:42:53;36.40;;;11.27;;
15114;SDS011;7658;51.456;7.622;2024-01-25T06:45:19;44.43;;;11.63;;
15114;SDS011;7658;51.456;7.622;2024-01-25T06:47:44;35.20;;;11.23;;
15114;SDS011;7658;51.456;7.622;2024-01-25T06:50:11;42.73;;;12.23;;
15114;SDS011;7658;51.456;7.622;2024-01-25T06:52:37;46.37;;;11.87;;
15114;SDS011;7658;51.456;7.622;2024-01-25T06:55:03;43.57;;;11.00;;
15114;SDS011;7658;51.456;7.622;2024-01-25T06:57:29;33.03;;;11.87;;
15114;SDS011;7658;51.456;7.622;2024-01-25T06:59:54;41.53;;;12.37;;
15114;SDS011;7658;51.456;7.622;2024-01-25T07:02:20;36.03;;;12.40;;
15114;SDS011;7658;51.456;7.622;2024-01-25T07:04:46;48.77;;;13.20;;
15114;SDS011;7658;51.456;7.622;2024-01-25T07:07:12;37.90;;;12.20;;
15114;SDS011;7658;51.456;7.622;2024-01-25T07:09:37;49.80;;;12.60;;
15114;SDS011;7658;51.456;7.622;2024-01-25T07:12:03;37.50;;;11.77;;
15114;SDS011;7658;51.456;7.622;2024-01-25T07:14:29;38.63;;;12.47;;
15114;SDS011;7658;51.456;7.622;2024-01-25T07:16:55;38.73;;;12.90;;
15114;SDS011;7658;51.456;7.622;2024-01-25T07:19:21;49.03;;;12.37;;
15114;SDS011;7658;51.456;7.622;2024-01-25T07:21:47;44.47;;;14.33;;
15114;SDS011;7658;51.456;7.622;2024-01-25T07:24:12;44.33;;;14.13;;
15114;SDS011;7658;51.456;7.622;2024-01-25T07:26:38;44.47;;;14.77;;
15114;SDS011;7658;51.456;7.622;2024-01-25T07:29:04;40.90;;;14.83;;
15114;SDS011;7658;51.456;7.622;2024-01-25T07:31:30;52.07;;;16.00;;
15114;SDS011;7658;51.456;7.622;2024-01-25T07:33:55;55.33;;;17.50;;
15114;SDS011;7658;51.456;7.622;2024-01-25T07:36:21;50.30;;;15.63;;
15114;SDS011;7658;51.456;7.622;2024-01-25T07:38:47;46.50;;;15.90;;
15114;SDS011;7658;51.456;7.622;2024-01-25T07:41:14;49.23;;;14.80;;
15114;SDS011;7658;51.456;7.622;2024-01-25T07:43:42;54.93;;;15.50;;
15114;SDS011;7658;51.456;7.622;2024-01-25T07:46:08;55.60;;;15.20;;
15114;SDS011;7658;51.456;7.622;2024-01-25T07:48:35;46.43;;;13.70;;
15114;SDS011;7658;51.456;7.622;2024-01-25T07:51:01;52.27;;;13.33;;
15114;SDS011;7658;51.456;7.622;2024-01-25T07:53:28;42.60;;;14.20;;
15114;SDS011;7658;51.456;7.622;2024-01-25T07:55:53;44.97;;;14.47;;
15114;SDS011;7658;51.456;7.622;2024-01-25T07:58:19;49.73;;;14.53;;
15114;SDS011;7658;51.456;7.622;2024-01-25T08:00:45;46.47;;;15.63;;
15114;SDS011;7658;51.456;7.622;2024-01-25T08:03:11;45.93;;;15.63;;
15114;SDS011;7658;51.456;7.622;2024-01-25T08:05:37;43.63;;;14.13;;
15114;SDS011;7658;51.456;7.622;2024-01-25T08:08:02;46.83;;;14.53;;
15114;SDS011;7658;51.456;7.622;2024-01-25T08:10:28;50.03;;;15.63;;
15114;SDS011;7658;51.456;7.622;2024-01-25T08:12:54;53.80;;;16.00;;
15114;SDS011;7658;51.456;7.622;2024-01-25T08:15:20;59.70;;;17.10;;
15114;SDS011;7658;51.456;7.622;2024-01-25T08:17:46;50.73;;;16.73;;
15114;SDS011;7658;51.456;7.622;2024-01-25T08:20:11;51.07;;;16.47;;
15114;SDS011;7658;51.456;7.622;2024-01-25T08:22:41;64.30;;;18.57;;
15114;SDS011;7658;51.456;7.622;2024-01-25T08:25:07;58.70;;;18.30;;
15114;SDS011;7658;51.456;7.622;2024-01-25T08:27:33;64.83;;;20.23;;
15114;SDS011;7658;51.456;7.622;2024-01-25T08:29:59;63.77;;;20.03;;
15114;SDS011;7658;51.456;7.622;2024-01-25T08:32:25;62.10;;;22.63;;
15114;SDS011;7658;51.456;7.622;2024-01-25T08:34:50;60.10;;;21.07;;
15114;SDS011;7658;51.456;7.622;2024-01-25T08:37:16;57.40;;;20.77;;
15114;SDS011;7658;51.456;7.622;2024-01-25T08:39:42;66.97;;;24.20;;
15114;SDS011;7658;51.456;7.622;2024-01-25T08:42:10;66.33;;;24.60;;
15114;SDS011;7658;51.456;7.622;2024-01-25T08:44:37;62.97;;;24.17;;
15114;SDS011;7658;51.456;7.622;2024-01-25T08:47:04;64.60;;;24.37;;
15114;SDS011;7658;51.456;7.622;2024-01-25T08:49:30;73.87;;;26.30;;
15114;SDS011;7658;51.456;7.622;2024-01-25T08:51:56;74.60;;;26.27;;
15114;SDS011;7658;51.456;7.622;2024-01-25T08:54:22;79.87;;;27.57;;
15114;SDS011;7658;51.456;7.622;2024-01-25T08:56:47;73.33;;;27.17;;
15114;SDS011;7658;51.456;7.622;2024-01-25T08:59:13;63.33;;;26.07;;
15114;SDS011;7658;51.456;7.622;2024-01-25T09:01:39;78.87;;;26.20;;
15114;SDS011;7658;51.456;7.622;2024-01-25T09:04:05;76.17;;;26.00;;
15114;SDS011;7658;51.456;7.622;2024-01-25T09:06:30;75.13;;;27.80;;
15114;SDS011;7658;51.456;7.622;2024-01-25T09:08:56;74.27;;;28.47;;
15114;SDS011;7658;51.456;7.622;2024-01-25T09:11:22;55.37;;;24.30;;
15114;SDS011;7658;51.456;7.622;2024-01-25T09:13:48;68.33;;;25.60;;
15114;SDS011;7658;51.456;7.622;2024-01-25T09:16:15;75.90;;;28.10;;
15114;SDS011;7658;51.456;7.622;2024-01-25T09:18:41;73.63;;;28.53;;
15114;SDS011;7658;51.456;7.622;2024-01-25T09:21:07;75.50;;;26.83;;
15114;SDS011;7658;51.456;7.622;2024-01-25T09:23:33;73.50;;;28.60;;
15114;SDS011;7658;51.456;7.622;2024-01-25T09:25:58;78.70;;;28.50;;
15114;SDS011;7658;51.456;7.622;2024-01-25T09:28:24;77.27;;;28.80;;
15114;SDS011;7658;51.456;7.622;2024-01-25T09:30:50;67.03;;;28.13;;
15114;SDS011;7658;51.456;7.622;2024-01-25T09:33:16;84.07;;;29.43;;
15114;SDS011;7658;51.456;7.622;2024-01-25T09:35:43;74.83;;;27.00;;
15114;SDS011;7658;51.456;7.622;2024-01-25T09:38:12;74.03;;;27.07;;
15114;SDS011;7658;51.456;7.622;2024-01-25T09:40:37;71.27;;;27.53;;
15114;SDS011;7658;51.456;7.622;2024-01-25T09:43:03;73.53;;;27.77;;
15114;SDS011;7658;51.456;7.622;2024-01-25T09:45:30;72.60;;;26.77;;
15114;SDS011;7658;51.456;7.622;2024-01-25T09:47:56;65.23;;;26.93;;
15114;SDS011;7658;51.456;7.622;2024-01-25T09:50:22;53.37;;;25.60;;
15114;SDS011;7658;51.456;7.622;2024-01-25T09:52:55;75.73;;;25.57;;
15114;SDS011;7658;51.456;7.622;2024-01-25T09:55:26;63.53;;;26.27;;
15114;SDS011;7658;51.456;7.622;2024-01-25T09:57:55;57.77;;;25.60;;
15114;SDS011;7658;51.456;7.622;2024-01-25T10:00:24;55.47;;;25.77;;
15114;SDS011;7658;51.456;7.622;2024-01-25T10:02:50;71.47;;;24.83;;
15114;SDS011;7658;51.456;7.622;2024-01-25T10:05:16;67.43;;;24.80;;
15114;SDS011;7658;51.456;7.622;2024-01-25T10:07:43;48.77;;;22.50;;
15114;SDS011;7658;51.456;7.622;2024-01-25T10:10:10;61.33;;;23.23;;
15114;SDS011;7658;51.456;7.622;2024-01-25T10:12:37;65.63;;;23.73;;
15114;SDS011;7658;51.456;7.622;2024-01-25T10:15:05;61.03;;;22.13;;
15114;SDS011;7658;51.456;7.622;2024-01-25T10:17:31;60.20;;;22.37;;
15114;SDS011;7658;51.456;7.622;2024-01-25T10:19:57;61.40;;;22.27;;
15114;SDS011;7658;51.456;7.622;2024-01-25T10:22:24;57.53;;;22.00;;
15114;SDS011;7658;51.456;7.622;2024-01-25T10:24:49;67.90;;;22.00;;
15114;SDS011;7658;51.456;7.622;2024-01-25T10:27:15;56.07;;;21.27;;
15114;SDS011;7658;51.456;7.622;2024-01-25T10:29:42;48.83;;;20.03;;
15114;SDS011;7658;51.456;7.622;2024-01-25T10:32:08;53.03;;;20.77;;
15114;SDS011;7658;51.456;7.622;2024-01-25T10:34:39;48.00;;;20.10;;
15114;SDS011;7658;51.456;7.622;2024-01-25T10:37:05;51.80;;;20.30;;
15114;SDS011;7658;51.456;7.622;2024-01-25T10:39:32;54.60;;;18.90;;
15114;SDS011;7658;51.456;7.622;2024-01-25T10:41:59;57.43;;;20.07;;
15114;SDS011;7658;51.456;7.622;2024-01-25T10:44:25;51.30;;;18.97;;
15114;SDS011;7658;51.456;7.622;2024-01-25T10:46:52;51.87;;;17.60;;
15114;SDS011;7658;51.456;7.622;2024-01-25T10:49:19;47.90;;;18.33;;
15114;SDS011;7658;51.456;7.622;2024-01-25T10:51:45;47.00;;;17.10;;
15114;SDS011;7658;51.456;7.622;2024-01-25T10:54:11;43.07;;;16.17;;
15114;SDS011;7658;51.456;7.622;2024-01-25T10:56:42;39.57;;;14.90;;
15114;SDS011;7658;51.456;7.622;2024-01-25T10:59:08;48.40;;;15.33;;
15114;SDS011;7658;51.456;7.622;2024-01-25T11:01:36;44.33;;;15.33;;
15114;SDS011;7658;51.456;7.622;2024-01-25T11:04:02;49.30;;;15.10;;
15114;SDS011;7658;51.456;7.622;2024-01-25T11:06:28;37.23;;;14.23;;
15114;SDS011;7658;51.456;7.622;2024-01-25T11:09:06;49.50;;;15.10;;
15114;SDS011;7658;51.456;7.622;2024-01-25T11:11:35;36.77;;;15.80;;
15114;SDS011;7658;51.456;7.622;2024-01-25T11:14:02;47.20;;;16.23;;
15114;SDS011;7658;51.456;7.622;2024-01-25T11:16:28;47.93;;;17.30;;
15114;SDS011;7658;51.456;7.622;2024-01-25T11:18:56;44.87;;;16.03;;
15114;SDS011;7658;51.456;7.622;2024-01-25T11:21:46;50.97;;;15.97;;
15114;SDS011;7658;51.456;7.622;2024-01-25T11:24:13;45.07;;;17.80;;
15114;SDS011;7658;51.456;7.622;2024-01-25T11:26:46;49.20;;;16.27;;
15114;SDS011;7658;51.456;7.622;2024-01-25T11:29:15;56.43;;;17.23;;
15114;SDS011;7658;51.456;7.622;2024-01-25T11:31:42;48.60;;;17.17;;
15114;SDS011;7658;51.456;7.622;2024-01-25T11:34:12;38.57;;;14.80;;
15114;SDS011;7658;51.456;7.622;2024-01-25T11:36:43;41.90;;;16.73;;
15114;SDS011;7658;51.456;7.622;2024-01-25T11:39:09;45.03;;;17.00;;
15114;SDS011;7658;51.456;7.622;2024-01-25T11:41:36;44.00;;;15.47;;
15114;SDS011;7658;51.456;7.622;2024-01-25T11:44:02;41.07;;;14.47;;
15114;SDS011;7658;51.456;7.622;2024-01-25T11:46:28;45.40;;;14.13;;
15114;SDS011;7658;51.456;7.622;2024-01-25T11:48:56;54.97;;;15.83;;
15114;SDS011;7658;51.456;7.622;2024-01-25T11:51:24;40.53;;;14.50;;
15114;SDS011;7658;51.456;7.622;2024-01-25T11:53:50;41.70;;;13.93;;
15114;SDS011;7658;51.456;7.622;2024-01-25T11:56:19;41.47;;;15.27;;
15114;SDS011;7658;51.456;7.622;2024-01-25T11:58:51;35.03;;;13.53;;
15114;SDS011;7658;51.456;7.622;2024-01-25T12:01:17;33.97;;;13.97;;
15114;SDS011;7658;51.456;7.622;2024-01-25T12:03:45;40.03;;;15.47;;
15114;SDS011;7658;51.456;7.622;2024-01-25T12:06:11;42.73;;;14.30;;
15114;SDS011;7658;51.456;7.622;2024-01-25T12:08:37;32.40;;;12.90;;
15114;SDS011;7658;51.456;7.622;2024-01-25T12:11:04;48.30;;;15.07;;
15114;SDS011;7658;51.456;7.622;2024-01-25T12:13:38;37.23;;;13.57;;
15114;SDS011;7658;51.456;7.622;2024-01-25T12:16:06;40.87;;;14.40;;
15114;SDS011;7658;51.456;7.622;2024-01-25T12:18:32;31.60;;;12.83;;
15114;SDS011;7658;51.456;7.622;2024-01-25T12:21:00;42.57;;;14.47;;
15114;SDS011;7658;51.456;7.622;2024-01-25T12:23:39;35.53;;;12.57;;
15114;SDS011;7658;51.456;7.622;2024-01-25T12:26:06;38.00;;;12.63;;
15114;SDS011;7658;51.456;7.622;2024-01-25T12:28:33;46.43;;;12.27;;
15114;SDS011;7658;51.456;7.622;2024-01-25T12:31:00;35.47;;;12.80;;
15114;SDS011;7658;51.456;7.622;2024-01-25T12:33:28;34.43;;;11.60;;
15114;SDS011;7658;51.456;7.622;2024-01-25T12:35:54;38.43;;;12.23;;
15114;SDS011;7658;51.456;7.622;2024-01-25T12:38:20;40.37;;;12.27;;
15114;SDS011;7658;51.456;7.622;2024-01-25T12:40:48;32.83;;;11.37;;
15114;SDS011;7658;51.456;7.622;2024-01-25T12:43:17;32.20;;;10.80;;
15114;SDS011;7658;51.456;7.622;2024-01-25T12:45:43;36.03;;;11.27;;
15114;SDS011;7658;51.456;7.622;2024-01-25T12:48:09;27.63;;;10.40;;
15114;SDS011;7658;51.456;7.622;2024-01-25T12:50:36;36.23;;;10.47;;
15114;SDS011;7658;51.456;7.622;2024-01-25T12:53:02;30.10;;;10.60;;
15114;SDS011;7658;51.456;7.622;2024-01-25T12:55:29;38.23;;;11.83;;
15114;SDS011;7658;51.456;7.622;2024-01-25T12:57:55;34.23;;;9.93;;
15114;SDS011;7658;51.456;7.622;2024-01-25T13:00:22;30.33;;;9.50;;
15114;SDS011;7658;51.456;7.622;2024-01-25T13:02:48;31.70;;;9.73;;
15114;SDS011;7658;51.456;7.622;2024-01-25T13:05:15;23.40;;;10.80;;
15114;SDS011;7658;51.456;7.622;2024-01-25T13:07:41;32.77;;;9.87;;
15114;SDS011;7658;51.456;7.622;2024-01-25T13:10:10;32.17;;;9.37;;
15114;SDS011;7658;51.456;7.622;2024-01-25T13:12:38;38.57;;;11.20;;
15114;SDS011;7658;51.456;7.622;2024-01-25T13:15:07;27.70;;;9.70;;
15114;SDS011;7658;51.456;7.622;2024-01-25T13:17:36;27.10;;;9.37;;
15114;SDS011;7658;51.456;7.622;2024-01-25T13:20:05;26.37;;;9.90;;
15114;SDS011;7658;51.456;7.622;2024-01-25T13:22:32;28.73;;;10.30;;
15114;SDS011;7658;51.456;7.622;2024-01-25T13:24:59;37.87;;;9.47;;
15114;SDS011;7658;51.456;7.622;2024-01-25T13:27:25;33.27;;;10.43;;
15114;SDS011;7658;51.456;7.622;2024-01-25T13:29:52;31.97;;;9.50;;
15114;SDS011;7658;51.456;7.622;2024-01-25T13:32:18;36.30;;;9.47;;
15114;SDS011;7658;51.456;7.622;2024-01-25T13:34:44;33.03;;;9.90;;
15114;SDS011;7658;51.456;7.622;2024-01-25T13:37:10;24.90;;;9.13;;
15114;SDS011;7658;51.456;7.622;2024-01-25T13:39:35;27.20;;;9.70;;
15114;SDS011;7658;51.456;7.622;2024-01-25T13:42:01;32.50;;;10.73;;
15114;SDS011;7658;51.456;7.622;2024-01-25T13:44:27;26.73;;;10.10;;
15114;SDS011;7658;51.456;7.622;2024-01-25T13:46:53;27.40;;;10.53;;
15114;SDS011;7658;51.456;7.622;2024-01-25T13:49:21;27.77;;;10.47;;
15114;SDS011;7658;51.456;7.622;2024-01-25T13:51:47;33.20;;;10.07;;
15114;SDS011;7658;51.456;7.622;2024-01-25T13:54:13;32.47;;;10.07;;
15114;SDS011;7658;51.456;7.622;2024-01-25T13:56:39;29.83;;;10.83;;
15114;SDS011;7658;51.456;7.622;2024-01-25T13:59:05;36.67;;;10.07;;
15114;SDS011;7658;51.456;7.622;2024-01-25T14:01:31;29.57;;;10.27;;
15114;SDS011;7658;51.456;7.622;2024-01-25T14:03:57;30.03;;;10.67;;
15114;SDS011;7658;51.456;7.622;2024-01-25T14:06:22;35.80;;;10.93;;
15114;SDS011;7658;51.456;7.622;2024-01-25T14:08:48;41.10;;;11.87;;
15114;SDS011;7658;51.456;7.622;2024-01-25T14:11:15;37.13;;;10.93;;
15114;SDS011;7658;51.456;7.622;2024-01-25T14:13:41;27.57;;;9.90;;
15114;SDS011;7658;51.456;7.622;2024-01-25T14:16:07;25.83;;;9.97;;
15114;SDS011;7658;51.456;7.622;2024-01-25T14:18:39;37.03;;;12.23;;
15114;SDS011;7658;51.456;7.622;2024-01-25T14:21:05;37.03;;;11.33;;
15114;SDS011;7658;51.456;7.622;2024-01-25T14:23:31;29.30;;;10.90;;
15114;SDS011;7658;51.456;7.622;2024-01-25T14:25:57;34.20;;;10.27;;
15114;SDS011;7658;51.456;7.622;2024-01-25T14:28:23;37.93;;;10.60;;
15114;SDS011;7658;51.456;7.622;2024-01-25T14:30:48;33.20;;;11.50;;
15114;SDS011;7658;51.456;7.622;2024-01-25T14:33:14;27.40;;;9.67;;
15114;SDS011;7658;51.456;7.622;2024-01-25T14:35:40;26.27;;;9.73;;
15114;SDS011;7658;51.456;7.622;2024-01-25T14:38:06;31.10;;;9.93;;
15114;SDS011;7658;51.456;7.622;2024-01-25T14:40:32;29.37;;;9.97;;
15114;SDS011;7658;51.456;7.622;2024-01-25T14:42:58;31.43;;;10.27;;
15114;SDS011;7658;51.456;7.622;2024-01-25T14:45:24;28.63;;;10.73;;
15114;SDS011;7658;51.456;7.622;2024-01-25T14:47:49;28.30;;;10.37;;
15114;SDS011;7658;51.456;7.622;2024-01-25T14:50:15;44.10;;;12.40;;
15114;SDS011;7658;51.456;7.622;2024-01-25T14:52:41;37.70;;;12.80;;
15114;SDS011;7658;51.456;7.622;2024-01-25T14:55:07;30.50;;;10.53;;
15114;SDS011;7658;51.456;7.622;2024-01-25T14:57:33;38.53;;;10.53;;
15114;SDS011;7658;51.456;7.622;2024-01-25T15:00:00;32.37;;;9.83;;
15114;SDS011;7658;51.456;7.622;2024-01-25T15:02:26;29.57;;;9.80;;
15114;SDS011;7658;51.456;7.622;2024-01-25T15:04:51;28.80;;;10.80;;
15114;SDS011;7658;51.456;7.622;2024-01-25T15:07:17;30.90;;;10.73;;
15114;SDS011;7658;51.456;7.622;2024-01-25T15:09:47;26.87;;;9.90;;
15114;SDS011;7658;51.456;7.622;2024-01-25T15:12:13;42.63;;;19.63;;
15114;SDS011;7658;51.456;7.622;2024-01-25T15:14:40;26.40;;;11.30;;
15114;SDS011;7658;51.456;7.622;2024-01-25T15:17:06;36.37;;;10.20;;
15114;SDS011;7658;51.456;7.622;2024-01-25T15:19:32;31.37;;;9.80;;
15114;SDS011;7658;51.456;7.622;2024-01-25T15:21:57;38.83;;;10.57;;
15114;SDS011;7658;51.456;7.622;2024-01-25T15:24:23;21.90;;;9.33;;
15114;SDS011;7658;51.456;7.622;2024-01-25T15:26:51;26.17;;;9.53;;
15114;SDS011;7658;51.456;7.622;2024-01-25T15:29:17;29.80;;;9.48;;
15114;SDS011;7658;51.456;7.622;2024-01-25T15:31:43;29.03;;;10.27;;
15114;SDS011;7658;51.456;7.622;2024-01-25T15:34:08;32.07;;;10.10;;
15114;SDS011;7658;51.456;7.622;2024-01-25T15:36:34;26.50;;;11.40;;
15114;SDS011;7658;51.456;7.622;2024-01-25T15:39:00;23.05;;;9.45;;
15114;SDS011;7658;51.456;7.622;2024-01-25T15:41:28;35.37;;;10.67;;
15114;SDS011;7658;51.456;7.622;2024-01-25T15:43:55;29.20;;;9.83;;